Time;durP1;ratioP1;P1;durP2;ratioP2;P2;SDS_P1;SDS_P2;PMS_P1;PMS_P2;Temp;Humidity;BMP_temperature;BMP_pressure;BME280_temperature;BME280_humidity;BME280_pressure;Samples;Min_cycle;Max_cycle;Signal;HPM_P1;HPM_P2
2023/10/17 00:00:55;;;;;;;;;;;;;;;;;;6322172;28;19973;-89
2023/10/17 00:03:55;;;;;;;;;;;;;;;;;;6310278;28;19919;-89
2023/10/17 00:06:58;;;;;;;;;;;;;;;;;;6337799;28;19995;-89
2023/10/17 00:09:59;;;;;;;;;;;;;;;;;;6323106;28;19915;-89
2023/10/17 00:13:18;;;;;;;;;;;;;;;;;;6313406;28;20018;-89
2023/10/17 00:16:18;;;;;;;;;;;;;;;;;;6327788;28;19916;-89
2023/10/17 00:19:22;;;;;;;;;;;;;;;;;;6320616;28;20340;-89
2023/10/17 00:22:24;;;;;;;;;;;;;;;;;;6314812;28;20405;-89
2023/10/17 00:25:26;;;;;;;;;;;;;;;;;;6310156;28;19908;-89
2023/10/17 00:28:27;;;;;;;;;;;;;;;;;;6332095;28;19919;-89
2023/10/17 00:31:27;;;;;;;;;;;;;;;;;;6307517;28;20404;-90
2023/10/17 00:34:27;;;;;;;;;;;;;;;;;;6310152;28;19943;-89
2023/10/17 00:37:30;;;;;;;;;;;;;;;;;;6306032;28;19919;-89
2023/10/17 00:43:46;;;;;;;;;;;;;;;;;;6322636;28;20000;-89
2023/10/17 00:46:46;;;;;;;;;;;;;;;;;;6323710;28;19911;-89
2023/10/17 00:49:46;;;;;;;;;;;;;;;;;;6300580;28;20282;-89
2023/10/17 00:52:47;;;;;;;;;;;;;;;;;;6313851;28;19907;-89
2023/10/17 00:55:59;;;;;;;;;;;;;;;;;;6328692;28;20064;-89
2023/10/17 00:59:00;;;;;;;;;;;;;;;;;;6324585;28;19912;-84
2023/10/17 01:02:06;;;;;;;;;;;;;;;;;;6305068;28;20350;-84
2023/10/17 01:05:11;;;;;;;;;;;;;;;;;;6299302;28;19919;-83
2023/10/17 01:08:11;;;;;;;;;;;;;;;;;;6333483;28;19908;-89
2023/10/17 01:11:20;;;;;;;;;;;;;;;;;;6336431;28;20357;-89
2023/10/17 01:14:23;;;;;;;;;;;;;;;;;;6324528;28;19912;-90
2023/10/17 01:17:27;;;;;;;;;;;;;;;;;;6307982;28;19924;-89
2023/10/17 01:20:27;;;;;;;;;;;;;;;;;;6306204;28;19920;-90
2023/10/17 01:23:29;;;;;;;;;;;;;;;;;;6318176;28;19950;-89
2023/10/17 01:26:29;;;;;;;;;;;;;;;;;;6340904;28;19919;-90
2023/10/17 01:29:29;;;;;;;;;;;;;;;;;;6323685;28;19911;-90
2023/10/17 01:32:30;;;;;;;;;;;;;;;;;;6324196;28;19912;-90
2023/10/17 01:35:30;;;;;;;;;;;;;;;;;;6324907;27;19911;-90
2023/10/17 01:38:31;;;;;;;;;;;;;;;;;;6303742;28;19912;-90
2023/10/17 01:41:31;;;;;;;;;;;;;;;;;;6328755;28;20401;-90
2023/10/17 01:44:31;;;;;;;;;;;;;;;;;;6322385;28;20003;-89
2023/10/17 01:47:31;;;;;;;;;;;;;;;;;;6320211;28;19911;-90
2023/10/17 01:50:32;;;;;;;;;;;;;;;;;;6310173;28;20437;-90
2023/10/17 01:53:33;;;;;;;;;;;;;;;;;;6345018;28;19919;-89
2023/10/17 01:56:33;;;;;;;;;;;;;;;;;;6328048;28;19908;-89
2023/10/17 01:59:34;;;;;;;;;;;;;;;;;;6337385;28;19920;-89
2023/10/17 02:02:35;;;;;;;;;;;;;;;;;;6304102;28;19908;-89
2023/10/17 02:05:37;;;;;;;;;;;;;;;;;;6332662;28;19966;-88
2023/10/17 02:08:39;;;;;;;;;;;;;;;;;;6336387;28;20205;-82
2023/10/17 02:11:44;;;;;;;;;;;;;;;;;;6325319;28;19908;-83
2023/10/17 02:14:44;;;;;;;;;;;;;;;;;;6328766;28;19971;-83
2023/10/17 02:17:44;;;;;;;;;;;;;;;;;;6333736;28;19908;-83
2023/10/17 02:20:51;;;;;;;;;;;;;;;;;;6335069;28;19919;-82
2023/10/17 02:23:51;;;;;;;;;;;;;;;;;;6316260;28;19964;-82
2023/10/17 02:27:00;;;;;;;;;;;;;;;;;;6331183;28;19911;-82
2023/10/17 02:30:03;;;;;;;;;;;;;;;;;;6316990;28;19918;-82
2023/10/17 02:33:11;;;;;;;;;;;;;;;;;;6326211;28;19912;-82
2023/10/17 02:36:16;;;;;;;;;;;;;;;;;;6342079;27;19919;-81
2023/10/17 02:39:16;;;;;;;;;;;;;;;;;;6321334;28;19957;-82
2023/10/17 02:42:16;;;;;;;;;;;;;;;;;;6309449;28;19911;-82
2023/10/17 02:45:26;;;;;;;;;;;;;;;;;;6321587;28;19915;-82
2023/10/17 02:48:26;;;;;;;;;;;;;;;;;;6333793;28;20380;-82
2023/10/17 02:54:27;;;;;;;;;;;;;;;;;;6328085;28;20341;-82
2023/10/17 02:57:32;;;;;;;;;;;;;;;;;;6332856;28;20064;-82
2023/10/17 03:00:36;;;;;;;;;;;;;;;;;;6309937;28;19924;-83
2023/10/17 03:03:37;;;;;;;;;;;;;;;;;;6319058;28;19912;-82
2023/10/17 03:06:40;;;;;;;;;;;;;;;;;;6333137;28;19908;-83
2023/10/17 03:09:43;;;;;;;;;;;;;;;;;;6310855;28;20259;-83
2023/10/17 03:12:53;;;;;;;;;;;;;;;;;;6326087;28;19916;-82
2023/10/17 03:16:00;;;;;;;;;;;;;;;;;;6329127;28;20462;-82
2023/10/17 03:19:05;;;;;;;;;;;;;;;;;;6322650;28;20013;-88
2023/10/17 03:22:19;;;;;;;;;;;;;;;;;;6321497;28;20008;-88
2023/10/17 03:25:19;;;;;;;;;;;;;;;;;;6321317;28;19912;-88
2023/10/17 03:28:22;;;;;;;;;;;;;;;;;;6325358;28;19914;-83
2023/10/17 03:31:22;;;;;;;;;;;;;;;;;;6313317;28;19956;-83
2023/10/17 03:34:34;;;;;;;;;;;;;;;;;;6306395;28;20319;-83
2023/10/17 03:37:38;;;;;;;;;;;;;;;;;;6327645;27;19912;-83
2023/10/17 03:40:51;;;;;;;;;;;;;;;;;;6326535;28;19922;-82
2023/10/17 03:43:54;;;;;;;;;;;;;;;;;;6321894;28;19912;-82
2023/10/17 03:46:54;;;;;;;;;;;;;;;;;;6302393;28;19957;-83
2023/10/17 03:49:56;;;;;;;;;;;;;;;;;;6306987;28;19912;-83
2023/10/17 03:52:56;;;;;;;;;;;;;;;;;;6319558;28;20259;-82
2023/10/17 03:56:00;;;;;;;;;;;;;;;;;;6320531;28;19951;-83
2023/10/17 04:02:19;;;;;;;;;;;;;;;;;;6329855;28;19920;-83
2023/10/17 04:05:23;;;;;;;;;;;;;;;;;;6311153;28;20325;-83
2023/10/17 04:08:30;;;;;;;;;;;;;;;;;;6336184;28;19923;-83
2023/10/17 04:11:36;;;;;;;;;;;;;;;;;;6311456;28;19923;-82
2023/10/17 04:14:50;;;;;;;;;;;;;;;;;;6335225;28;20282;-83
2023/10/17 04:17:50;;;;;;;;;;;;;;;;;;6331986;28;20025;-83
2023/10/17 04:20:58;;;;;;;;;;;;;;;;;;6314483;28;19919;-83
2023/10/17 04:24:04;;;;;;;;;;;;;;;;;;6337894;28;19915;-83
2023/10/17 04:27:31;;;;;;;;;;;;;;;;;;6318265;28;19955;-88
2023/10/17 04:30:46;;;;;;;;;;;;;;;;;;6334706;28;19916;-88
2023/10/17 04:33:47;;;;;;;;;;;;;;;;;;6316474;28;19916;-88
2023/10/17 04:36:51;;;;;;;;;;;;;;;;;;6336015;27;20423;-84
2023/10/17 04:39:58;;;;;;;;;;;;;;;;;;6336456;28;19920;-82
2023/10/17 04:43:41;;;;;;;;;;;;;;;;;;6309633;28;19965;-83
2023/10/17 04:46:25;;;;;;;;;;;;;;;;;;6330510;28;20627;-83
2023/10/17 04:49:25;;;;;;;;;;;;;;;;;;6307984;28;19923;-83
2023/10/17 04:52:40;;;;;;;;;;;;;;;;;;6326743;28;19915;-83
2023/10/17 04:55:59;;;;;;;;;;;;;;;;;;6327146;28;20468;-83
2023/10/17 04:59:02;;;;;;;;;;;;;;;;;;6330644;28;19911;-84
2023/10/17 05:02:35;;;;;;;;;;;;;;;;;;6335430;28;19993;-83
2023/10/17 05:05:45;;;;;;;;;;;;;;;;;;6338909;28;19922;-83
2023/10/17 05:09:08;;;;;;;;;;;;;;;;;;6331231;28;19912;-84
2023/10/17 06:18:33;;;;;;;;;;;;;;;;;;6341018;28;20343;-84
2023/10/17 06:21:36;;;;;;;;;;;;;;;;;;6323037;28;19923;-84
2023/10/17 06:30:48;;;;;;;;;;;;;;;;;;6330606;28;20019;-84
2023/10/17 06:33:48;;;;;;;;;;;;;;;;;;6322508;28;19931;-84
2023/10/17 06:36:49;;;;;;;;;;;;;;;;;;6343210;28;19919;-84
2023/10/17 06:39:49;;;;;;;;;;;;;;;;;;6338036;28;19915;-84
2023/10/17 06:42:50;;;;;;;;;;;;;;;;;;6343855;28;19938;-85
2023/10/17 06:46:11;;;;;;;;;;;;;;;;;;6332557;28;19920;-84
2023/10/17 06:49:28;;;;;;;;;;;;;;;;;;6325614;27;19965;-89
2023/10/17 06:52:54;;;;;;;;;;;;;;;;;;6298129;28;20020;-89
2023/10/17 06:55:59;;;;;;;;;;;;;;;;;;6310542;28;19965;-88
2023/10/17 06:59:05;;;;;;;;;;;;;;;;;;6322587;28;20003;-83
2023/10/17 07:02:41;;;;;;;;;;;;;;;;;;6338379;28;19969;-84
2023/10/17 07:05:31;;;;;;;;;;;;;;;;;;6331884;28;19999;-84
2023/10/17 07:08:36;;;;;;;;;;;;;;;;;;6328062;28;19918;-84
2023/10/17 07:11:36;;;;;;;;;;;;;;;;;;6324412;28;19912;-83
2023/10/17 07:14:40;;;;;;;;;;;;;;;;;;6318080;28;19916;-85
2023/10/17 07:17:48;;;;;;;;;;;;;;;;;;6324155;28;20452;-84
2023/10/17 07:24:07;;;;;;;;;;;;;;;;;;6322009;28;20361;-84
2023/10/17 07:27:52;;;;;;;;;;;;;;;;;;6312455;27;19922;-84
2023/10/17 07:30:49;;;;;;;;;;;;;;;;;;6324537;27;19944;-83
2023/10/17 07:37:22;;;;;;;;;;;;;;;;;;6330020;27;20290;-83
2023/10/17 07:40:22;;;;;;;;;;;;;;;;;;6311265;28;19916;-84
2023/10/17 07:43:22;;;;;;;;;;;;;;;;;;6318467;28;19919;-84
2023/10/17 07:46:26;;;;;;;;;;;;;;;;;;6332137;28;19915;-84
2023/10/17 07:49:26;;;;;;;;;;;;;;;;;;6336145;27;19943;-84
2023/10/17 07:52:30;;;;;;;;;;;;;;;;;;6305062;28;20301;-83
2023/10/17 07:55:37;;;;;;;;;;;;;;;;;;6327030;27;19913;-83
2023/10/17 07:58:44;;;;;;;;;;;;;;;;;;6334553;28;19946;-88
2023/10/17 08:01:45;;;;;;;;;;;;;;;;;;6331759;28;19924;-88
2023/10/17 08:04:45;;;;;;;;;;;;;;;;;;6311025;28;19916;-88
2023/10/17 08:07:49;;;;;;;;;;;;;;;;;;6304734;28;19908;-84
2023/10/17 08:10:49;;;;;;;;;;;;;;;;;;6317408;28;19919;-84
2023/10/17 08:13:49;;;;;;;;;;;;;;;;;;6317904;28;19956;-84
2023/10/17 08:16:55;;;;;;;;;;;;;;;;;;6326111;28;19908;-84
2023/10/17 08:23:07;;;;;;;;;;;;;;;;;;6337977;28;20325;-84
2023/10/17 08:26:17;;;;;;;;;;;;;;;;;;6329734;28;19922;-84
2023/10/17 08:29:20;;;;;;;;;;;;;;;;;;6330850;28;19916;-83
2023/10/17 08:35:20;;;;;;;;;;;;;;;;;;6327489;28;19908;-84
2023/10/17 08:38:22;;;;;;;;;;;;;;;;;;6325814;28;19938;-84
2023/10/17 08:41:23;;;;;;;;;;;;;;;;;;6307401;28;20422;-84
2023/10/17 08:44:23;;;;;;;;;;;;;;;;;;6325774;28;19909;-84
2023/10/17 08:47:30;;;;;;;;;;;;;;;;;;6309117;28;19919;-84
2023/10/17 08:50:37;;;;;;;;;;;;;;;;;;6314709;28;19955;-84
2023/10/17 08:53:39;;;;;;;;;;;;;;;;;;6306526;28;19928;-84
2023/10/17 08:56:39;;;;;;;;;;;;;;;;;;6328182;28;20397;-84
2023/10/17 09:02:48;;;;;;;;;;;;;;;;;;6331526;28;19919;-84
2023/10/17 09:05:48;;;;;;;;;;;;;;;;;;6338922;28;20029;-84
2023/10/17 09:15:16;;;;;;;;;;;;;;;;;;6331965;28;19912;-84
2023/10/17 09:18:22;;;;;;;;;;;;;;;;;;6332175;28;19916;-87
2023/10/17 09:21:22;;;;;;;;;;;;;;;;;;6313825;28;19920;-88
2023/10/17 09:24:22;;;;;;;;;;;;;;;;;;6332866;28;20278;-87
2023/10/17 09:27:22;;;;;;;;;;;;;;;;;;6333526;28;20299;-87
2023/10/17 09:30:26;;;;;;;;;;;;;;;;;;6328742;28;20572;-87
2023/10/17 09:33:27;;;;;;;;;;;;;;;;;;6315492;28;19919;-87
2023/10/17 09:36:28;;;;;;;;;;;;;;;;;;6326349;28;19963;-87
2023/10/17 09:39:29;;;;;;;;;;;;;;;;;;6330328;28;19920;-88
2023/10/17 09:42:30;;;;;;;;;;;;;;;;;;6321193;28;19923;-88
2023/10/17 09:45:30;;;;;;;;;;;;;;;;;;6317248;28;19912;-87
2023/10/17 09:48:32;;;;;;;;;;;;;;;;;;6313965;28;20019;-87
2023/10/17 09:51:33;;;;;;;;;;;;;;;;;;6306023;28;20444;-87
2023/10/17 09:54:33;;;;;;;;;;;;;;;;;;6330071;28;20394;-88
2023/10/17 09:57:34;;;;;;;;;;;;;;;;;;6322759;28;19920;-87
2023/10/17 10:00:36;;;;;;;;;;;;;;;;;;6330043;27;19978;-88
2023/10/17 10:03:36;;;;;;;;;;;;;;;;;;6323736;28;19911;-88
2023/10/17 10:06:36;;;;;;;;;;;;;;;;;;6325538;28;19939;-88
2023/10/17 10:09:36;;;;;;;;;;;;;;;;;;6326534;28;20006;-88
2023/10/17 10:12:36;;;;;;;;;;;;;;;;;;6332384;28;19943;-88
2023/10/17 10:15:37;;;;;;;;;;;;;;;;;;6339360;28;20376;-87
2023/10/17 10:18:38;;;;;;;;;;;;;;;;;;6312223;28;19908;-87
2023/10/17 10:21:38;;;;;;;;;;;;;;;;;;6329427;28;19938;-87
2023/10/17 10:24:39;;;;;;;;;;;;;;;;;;6316400;28;19908;-87
2023/10/17 10:27:39;;;;;;;;;;;;;;;;;;6315102;28;19990;-85
2023/10/17 10:30:43;;;;;;;;;;;;;;;;;;6309915;28;19957;-85
2023/10/17 10:33:43;;;;;;;;;;;;;;;;;;6335475;28;19912;-84
2023/10/17 10:36:43;;;;;;;;;;;;;;;;;;6311759;28;19908;-84
2023/10/17 10:39:45;;;;;;;;;;;;;;;;;;6333514;28;19908;-85
2023/10/17 10:42:45;;;;;;;;;;;;;;;;;;6321056;28;19908;-84
2023/10/17 10:45:50;;;;;;;;;;;;;;;;;;6312418;28;19916;-85
2023/10/17 10:48:51;;;;;;;;;;;;;;;;;;6339908;28;19915;-84
2023/10/17 10:51:52;;;;;;;;;;;;;;;;;;6327229;27;19916;-85
2023/10/17 10:54:59;;;;;;;;;;;;;;;;;;6311271;28;19961;-85
2023/10/17 10:58:00;;;;;;;;;;;;;;;;;;6331459;28;20312;-85
2023/10/17 11:01:01;;;;;;;;;;;;;;;;;;6341921;27;19924;-85
2023/10/17 11:04:01;;;;;;;;;;;;;;;;;;6337905;27;20426;-85
2023/10/17 11:07:01;;;;;;;;;;;;;;;;;;6330999;27;19922;-85
2023/10/17 11:10:03;;;;;;;;;;;;;;;;;;6331936;28;19915;-84
2023/10/17 11:13:03;;;;;;;;;;;;;;;;;;6339930;28;19961;-84
2023/10/17 11:16:06;;;;;;;;;;;;;;;;;;6322019;28;20309;-83
2023/10/17 11:19:09;;;;;;;;;;;;;;;;;;6323898;28;19919;-84
2023/10/17 11:22:09;;;;;;;;;;;;;;;;;;6322919;28;20282;-85
2023/10/17 11:25:10;;;;;;;;;;;;;;;;;;6326200;27;19908;-84
2023/10/17 11:28:10;;;;;;;;;;;;;;;;;;6322766;28;19908;-88
2023/10/17 11:31:22;;;;;;;;;;;;;;;;;;6324436;27;19969;-88
2023/10/17 11:34:22;;;;;;;;;;;;;;;;;;6324722;28;20710;-88
2023/10/17 11:37:23;;;;;;;;;;;;;;;;;;6342289;27;19957;-87
2023/10/17 11:40:29;;;;;;;;;;;;;;;;;;6333552;28;20304;-88
2023/10/17 11:43:34;;;;;;;;;;;;;;;;;;6339332;28;19968;-88
2023/10/17 11:46:34;;;;;;;;;;;;;;;;;;6334136;28;19915;-87
2023/10/17 11:49:35;;;;;;;;;;;;;;;;;;6325590;27;19912;-88
2023/10/17 11:52:36;;;;;;;;;;;;;;;;;;6317808;28;19908;-88
2023/10/17 11:55:36;;;;;;;;;;;;;;;;;;6325769;28;20007;-88
2023/10/17 11:58:36;;;;;;;;;;;;;;;;;;6338757;28;19912;-88
2023/10/17 12:01:36;;;;;;;;;;;;;;;;;;6297075;28;20011;-87
2023/10/17 12:04:37;;;;;;;;;;;;;;;;;;6296108;28;20020;-88
2023/10/17 12:07:42;;;;;;;;;;;;;;;;;;6294028;28;20014;-88
2023/10/17 12:10:43;;;;;;;;;;;;;;;;;;6301198;28;19911;-88
2023/10/17 12:13:43;;;;;;;;;;;;;;;;;;6315101;28;19963;-88
2023/10/17 12:16:44;;;;;;;;;;;;;;;;;;6312116;28;19920;-88
2023/10/17 12:19:44;;;;;;;;;;;;;;;;;;6301265;28;20003;-87
2023/10/17 12:22:44;;;;;;;;;;;;;;;;;;6293441;28;19919;-88
2023/10/17 12:25:44;;;;;;;;;;;;;;;;;;6290030;28;19919;-88
2023/10/17 12:28:44;;;;;;;;;;;;;;;;;;6307349;28;20383;-92
2023/10/17 12:31:45;;;;;;;;;;;;;;;;;;6297420;28;20029;-88
2023/10/17 12:34:46;;;;;;;;;;;;;;;;;;6287078;28;19913;-88
2023/10/17 12:37:46;;;;;;;;;;;;;;;;;;6288913;28;19959;-88
2023/10/17 12:40:46;;;;;;;;;;;;;;;;;;6296127;28;20274;-88
2023/10/17 12:43:47;;;;;;;;;;;;;;;;;;6312290;28;19916;-88
2023/10/17 12:46:47;;;;;;;;;;;;;;;;;;6299512;28;20434;-85
2023/10/17 12:49:47;;;;;;;;;;;;;;;;;;6300266;28;19920;-84
2023/10/17 12:52:48;;;;;;;;;;;;;;;;;;6297750;28;19916;-85
2023/10/17 12:55:48;;;;;;;;;;;;;;;;;;6290317;28;20025;-84
2023/10/17 12:58:48;;;;;;;;;;;;;;;;;;6307915;28;20028;-84
2023/10/17 13:01:48;;;;;;;;;;;;;;;;;;6310092;28;19928;-85
2023/10/17 13:04:49;;;;;;;;;;;;;;;;;;6331307;28;19936;-84
2023/10/17 13:07:49;;;;;;;;;;;;;;;;;;6324655;27;19982;-84
2023/10/17 13:10:50;;;;;;;;;;;;;;;;;;6307610;28;20445;-84
2023/10/17 13:13:50;;;;;;;;;;;;;;;;;;6303592;28;20011;-84
2023/10/17 13:16:50;;;;;;;;;;;;;;;;;;6323943;28;19954;-84
2023/10/17 13:19:51;;;;;;;;;;;;;;;;;;6305160;28;19912;-84
2023/10/17 13:22:51;;;;;;;;;;;;;;;;;;6320877;28;19912;-85
2023/10/17 13:25:53;;;;;;;;;;;;;;;;;;6314280;28;19912;-84
2023/10/17 13:28:54;;;;;;;;;;;;;;;;;;6313192;28;19941;-84
2023/10/17 13:31:55;;;;;;;;;;;;;;;;;;6322212;28;19916;-85
2023/10/17 13:34:55;;;;;;;;;;;;;;;;;;6308838;28;19916;-84
2023/10/17 13:37:56;;;;;;;;;;;;;;;;;;6327032;28;19927;-85
2023/10/17 13:40:56;;;;;;;;;;;;;;;;;;6305054;28;20007;-85
2023/10/17 13:43:56;;;;;;;;;;;;;;;;;;6325109;28;19913;-85
2023/10/17 13:46:56;;;;;;;;;;;;;;;;;;6321903;28;19963;-89
2023/10/17 13:49:57;;;;;;;;;;;;;;;;;;6303714;28;19921;-88
2023/10/17 13:53:06;;;;;;;;;;;;;;;;;;6332308;28;19913;-89
2023/10/17 13:56:07;;;;;;;;;;;;;;;;;;6286338;28;19965;-89
2023/10/17 13:59:09;;;;;;;;;;;;;;;;;;6324276;28;19916;-85
2023/10/17 14:02:10;;;;;;;;;;;;;;;;;;6334672;28;19916;-84
2023/10/17 14:05:12;;;;;;;;;;;;;;;;;;6324255;28;19923;-84
2023/10/17 14:08:13;;;;;;;;;;;;;;;;;;6325574;28;20271;-84
2023/10/17 14:11:17;;;;;;;;;;;;;;;;;;6313679;28;19919;-84
2023/10/17 14:14:18;;;;;;;;;;;;;;;;;;6335926;28;20270;-84
2023/10/17 14:17:20;;;;;;;;;;;;;;;;;;6311994;28;19919;-84
2023/10/17 14:20:38;;;;;;;;;;;;;;;;;;6341588;28;20366;-84
2023/10/17 14:26:57;;;;;;;;;;;;;;;;;;6333611;28;20378;-84
2023/10/17 14:30:03;;;;;;;;;;;;;;;;;;6329218;28;19927;-85
2023/10/17 14:33:03;;;;;;;;;;;;;;;;;;6325320;28;19915;-85
2023/10/17 14:36:03;;;;;;;;;;;;;;;;;;6337350;28;19919;-85
2023/10/17 14:39:09;;;;;;;;;;;;;;;;;;6316266;28;19955;-85
2023/10/17 14:42:17;;;;;;;;;;;;;;;;;;6327216;28;19918;-85
2023/10/17 14:45:17;;;;;;;;;;;;;;;;;;6329272;28;19950;-85
2023/10/17 14:48:17;;;;;;;;;;;;;;;;;;6324293;28;20323;-85
2023/10/17 14:51:18;;;;;;;;;;;;;;;;;;6326611;28;20378;-85
2023/10/17 14:54:18;;;;;;;;;;;;;;;;;;6325901;28;20441;-85
2023/10/17 14:57:20;;;;;;;;;;;;;;;;;;6342333;28;19938;-85
2023/10/17 15:00:21;;;;;;;;;;;;;;;;;;6322710;27;19975;-85
2023/10/17 15:03:21;;;;;;;;;;;;;;;;;;6319249;28;19912;-84
2023/10/17 15:06:39;;;;;;;;;;;;;;;;;;6315030;28;19946;-84
2023/10/17 15:09:39;;;;;;;;;;;;;;;;;;6309940;28;20000;-85
2023/10/17 15:12:40;;;;;;;;;;;;;;;;;;6331984;28;20266;-85
2023/10/17 15:15:41;;;;;;;;;;;;;;;;;;6335270;28;19919;-84
2023/10/17 15:18:41;;;;;;;;;;;;;;;;;;6329328;28;19912;-85
2023/10/17 15:21:41;;;;;;;;;;;;;;;;;;6330171;28;19916;-85
2023/10/17 15:24:41;;;;;;;;;;;;;;;;;;6327241;28;20380;-85
2023/10/17 15:27:41;;;;;;;;;;;;;;;;;;6341956;27;20476;-84
2023/10/17 15:30:41;;;;;;;;;;;;;;;;;;6314197;28;19919;-85
2023/10/17 15:33:42;;;;;;;;;;;;;;;;;;6333821;28;19960;-84
2023/10/17 15:36:42;;;;;;;;;;;;;;;;;;6307407;28;19934;-84
2023/10/17 15:39:43;;;;;;;;;;;;;;;;;;6318365;28;19919;-85
2023/10/17 15:42:44;;;;;;;;;;;;;;;;;;6314133;28;19919;-85
2023/10/17 15:45:45;;;;;;;;;;;;;;;;;;6331355;27;19969;-87
2023/10/17 15:48:45;;;;;;;;;;;;;;;;;;6316407;27;19916;-86
2023/10/17 15:51:45;;;;;;;;;;;;;;;;;;6313449;28;19915;-84
2023/10/17 15:54:46;;;;;;;;;;;;;;;;;;6331102;27;20045;-84
2023/10/17 15:57:46;;;;;;;;;;;;;;;;;;6302041;28;20361;-84
2023/10/17 16:00:46;;;;;;;;;;;;;;;;;;6350246;27;19969;-84
2023/10/17 16:03:46;;;;;;;;;;;;;;;;;;6309308;28;19934;-84
2023/10/17 16:06:47;;;;;;;;;;;;;;;;;;6325543;28;19907;-84
2023/10/17 16:09:49;;;;;;;;;;;;;;;;;;6331774;28;20067;-86
2023/10/17 16:12:50;;;;;;;;;;;;;;;;;;6330185;28;19920;-86
2023/10/17 16:15:50;;;;;;;;;;;;;;;;;;6318595;27;19912;-86
2023/10/17 16:18:52;;;;;;;;;;;;;;;;;;6333518;27;19960;-86
2023/10/17 16:21:52;;;;;;;;;;;;;;;;;;6333484;28;19916;-86
2023/10/17 16:24:52;;;;;;;;;;;;;;;;;;6331493;28;19932;-86
2023/10/17 16:27:52;;;;;;;;;;;;;;;;;;6314845;27;19912;-86
2023/10/17 16:30:53;;;;;;;;;;;;;;;;;;6314090;28;20342;-86
2023/10/17 16:33:54;;;;;;;;;;;;;;;;;;6320136;28;19908;-86
2023/10/17 16:36:54;;;;;;;;;;;;;;;;;;6320086;28;19916;-85
2023/10/17 16:39:54;;;;;;;;;;;;;;;;;;6326211;28;19908;-86
2023/10/17 16:42:54;;;;;;;;;;;;;;;;;;6319603;28;19911;-86
2023/10/17 16:45:56;;;;;;;;;;;;;;;;;;6326054;28;20281;-86
2023/10/17 16:48:59;;;;;;;;;;;;;;;;;;6339617;27;19992;-86
2023/10/17 16:52:02;;;;;;;;;;;;;;;;;;6313607;28;20007;-85
2023/10/17 16:55:03;;;;;;;;;;;;;;;;;;6330363;28;19916;-86
2023/10/17 16:58:03;;;;;;;;;;;;;;;;;;6331352;28;20356;-86
2023/10/17 17:01:05;;;;;;;;;;;;;;;;;;6332837;27;19920;-85
2023/10/17 17:04:07;;;;;;;;;;;;;;;;;;6306139;28;19912;-85
2023/10/17 17:07:07;;;;;;;;;;;;;;;;;;6333381;28;20433;-86
2023/10/17 17:10:13;;;;;;;;;;;;;;;;;;6324612;28;19916;-85
2023/10/17 17:13:14;;;;;;;;;;;;;;;;;;6306785;28;19922;-85
2023/10/17 17:16:14;;;;;;;;;;;;;;;;;;6299712;28;20354;-84
2023/10/17 17:19:17;;;;;;;;;;;;;;;;;;6324697;28;20688;-89
2023/10/17 17:22:18;;;;;;;;;;;;;;;;;;6326791;28;20056;-88
2023/10/17 17:25:18;;;;;;;;;;;;;;;;;;6335785;28;20145;-87
2023/10/17 17:28:18;;;;;;;;;;;;;;;;;;6320553;28;19916;-85
2023/10/17 17:31:18;;;;;;;;;;;;;;;;;;6302769;28;19985;-86
2023/10/17 17:34:18;;;;;;;;;;;;;;;;;;6304274;28;20393;-85
2023/10/17 17:37:18;;;;;;;;;;;;;;;;;;6298885;28;19973;-85
2023/10/17 17:40:18;;;;;;;;;;;;;;;;;;6324315;28;19920;-85
2023/10/17 17:43:19;;;;;;;;;;;;;;;;;;6307215;28;19943;-85
2023/10/17 17:46:20;;;;;;;;;;;;;;;;;;6310877;28;19912;-85
2023/10/17 17:49:20;;;;;;;;;;;;;;;;;;6316196;28;20002;-85
2023/10/17 17:52:20;;;;;;;;;;;;;;;;;;6310659;28;20471;-83
2023/10/17 17:55:20;;;;;;;;;;;;;;;;;;6323999;28;19915;-85
2023/10/17 17:58:20;;;;;;;;;;;;;;;;;;6330642;28;20523;-85
2023/10/17 18:01:20;;;;;;;;;;;;;;;;;;6312298;28;20035;-86
2023/10/17 18:04:22;;;;;;;;;;;;;;;;;;6329470;28;19956;-85
2023/10/17 18:07:22;;;;;;;;;;;;;;;;;;6331633;28;20018;-85
2023/10/17 18:10:22;;;;;;;;;;;;;;;;;;6345345;28;19919;-86
2023/10/17 18:13:22;;;;;;;;;;;;;;;;;;6317860;28;19926;-85
2023/10/17 18:16:22;;;;;;;;;;;;;;;;;;6327277;28;19934;-85
2023/10/17 18:19:23;;;;;;;;;;;;;;;;;;6327457;28;20369;-85
2023/10/17 18:22:23;;;;;;;;;;;;;;;;;;6308648;28;20410;-86
2023/10/17 18:25:24;;;;;;;;;;;;;;;;;;6328056;28;19912;-85
2023/10/17 18:28:24;;;;;;;;;;;;;;;;;;6337974;27;19954;-89
2023/10/17 18:31:24;;;;;;;;;;;;;;;;;;6336288;28;19907;-89
2023/10/17 18:34:24;;;;;;;;;;;;;;;;;;6309856;28;19920;-89
2023/10/17 18:37:24;;;;;;;;;;;;;;;;;;6309265;28;19995;-85
2023/10/17 18:40:25;;;;;;;;;;;;;;;;;;6330758;28;19938;-86
2023/10/17 18:43:27;;;;;;;;;;;;;;;;;;6323873;28;19931;-85
2023/10/17 18:46:27;;;;;;;;;;;;;;;;;;6328902;28;19916;-85
2023/10/17 18:49:28;;;;;;;;;;;;;;;;;;6327282;27;19919;-85
2023/10/17 18:52:30;;;;;;;;;;;;;;;;;;6310156;28;19908;-85
2023/10/17 18:55:30;;;;;;;;;;;;;;;;;;6337464;28;19997;-85
2023/10/17 18:58:34;;;;;;;;;;;;;;;;;;6332257;28;19912;-85
2023/10/17 19:01:34;;;;;;;;;;;;;;;;;;6332528;27;19920;-85
2023/10/17 19:04:34;;;;;;;;;;;;;;;;;;6318867;28;19923;-86
2023/10/17 19:07:34;;;;;;;;;;;;;;;;;;6323907;28;19926;-85
2023/10/17 19:10:34;;;;;;;;;;;;;;;;;;6324685;28;19943;-85
2023/10/17 19:13:35;;;;;;;;;;;;;;;;;;6320832;28;20037;-85
2023/10/17 19:16:36;;;;;;;;;;;;;;;;;;6322610;28;20014;-85
2023/10/17 19:19:36;;;;;;;;;;;;;;;;;;6327001;28;20390;-85
2023/10/17 19:22:38;;;;;;;;;;;;;;;;;;6320839;28;19968;-85
2023/10/17 19:25:38;;;;;;;;;;;;;;;;;;6311237;28;19920;-83
2023/10/17 19:28:38;;;;;;;;;;;;;;;;;;6327049;28;19908;-83
2023/10/17 19:31:38;;;;;;;;;;;;;;;;;;6325358;28;19989;-83
2023/10/17 19:34:43;;;;;;;;;;;;;;;;;;6323815;28;20010;-85
2023/10/17 19:37:43;;;;;;;;;;;;;;;;;;6315282;28;19912;-83
2023/10/17 19:40:43;;;;;;;;;;;;;;;;;;6305196;28;19993;-83
2023/10/17 19:43:43;;;;;;;;;;;;;;;;;;6333152;28;19916;-86
2023/10/17 19:46:44;;;;;;;;;;;;;;;;;;6323944;28;19957;-91
2023/10/17 19:49:44;;;;;;;;;;;;;;;;;;6310873;28;19911;-90
2023/10/17 19:52:47;;;;;;;;;;;;;;;;;;6307235;28;20273;-90
2023/10/17 19:55:48;;;;;;;;;;;;;;;;;;6334436;27;19923;-90
2023/10/17 19:58:49;;;;;;;;;;;;;;;;;;6334153;28;19915;-90
2023/10/17 20:01:49;;;;;;;;;;;;;;;;;;6342371;27;20085;-90
2023/10/17 20:04:49;;;;;;;;;;;;;;;;;;6329172;28;20251;-90
2023/10/17 20:07:50;;;;;;;;;;;;;;;;;;6339259;28;20331;-90
2023/10/17 20:10:50;;;;;;;;;;;;;;;;;;6332995;28;19912;-90
2023/10/17 20:13:50;;;;;;;;;;;;;;;;;;6334551;28;20306;-87
2023/10/17 20:16:50;;;;;;;;;;;;;;;;;;6315315;28;19907;-87
2023/10/17 20:19:51;;;;;;;;;;;;;;;;;;6336557;28;19913;-90
2023/10/17 20:22:51;;;;;;;;;;;;;;;;;;6323358;28;19912;-90
2023/10/17 20:25:51;;;;;;;;;;;;;;;;;;6332301;28;20373;-90
2023/10/17 20:28:52;;;;;;;;;;;;;;;;;;6330968;28;19912;-90
2023/10/17 20:31:52;;;;;;;;;;;;;;;;;;6341984;28;19933;-90
2023/10/17 20:34:53;;;;;;;;;;;;;;;;;;6310573;28;20006;-89
2023/10/17 20:37:53;;;;;;;;;;;;;;;;;;6312418;28;19971;-89
2023/10/17 20:40:53;;;;;;;;;;;;;;;;;;6328026;28;19923;-90
2023/10/17 20:43:53;;;;;;;;;;;;;;;;;;6315962;28;19922;-89
2023/10/17 20:46:53;;;;;;;;;;;;;;;;;;6326303;28;19922;-89
2023/10/17 20:49:53;;;;;;;;;;;;;;;;;;6332392;27;19912;-89
2023/10/17 20:52:54;;;;;;;;;;;;;;;;;;6307090;27;20290;-87
2023/10/17 20:55:54;;;;;;;;;;;;;;;;;;6316995;28;20044;-89
2023/10/17 20:58:54;;;;;;;;;;;;;;;;;;6321166;28;19922;-86
2023/10/17 21:01:56;;;;;;;;;;;;;;;;;;6320303;27;20411;-82
2023/10/17 21:04:56;;;;;;;;;;;;;;;;;;6327009;28;20006;-83
2023/10/17 21:07:56;;;;;;;;;;;;;;;;;;6317485;28;19960;-82
2023/10/17 21:10:57;;;;;;;;;;;;;;;;;;6309769;28;19908;-82
2023/10/17 21:13:57;;;;;;;;;;;;;;;;;;6312869;28;19912;-83
2023/10/17 21:16:57;;;;;;;;;;;;;;;;;;6309096;28;19943;-83
2023/10/17 21:20:00;;;;;;;;;;;;;;;;;;6333340;28;19922;-83
2023/10/17 21:23:00;;;;;;;;;;;;;;;;;;6324036;28;19915;-85
2023/10/17 21:26:00;;;;;;;;;;;;;;;;;;6305593;28;20369;-85
2023/10/17 21:29:00;;;;;;;;;;;;;;;;;;6319083;28;19926;-85
2023/10/17 21:32:00;;;;;;;;;;;;;;;;;;6317960;28;19912;-85
2023/10/17 21:35:00;;;;;;;;;;;;;;;;;;6338416;28;20434;-84
2023/10/17 21:38:01;;;;;;;;;;;;;;;;;;6331083;28;19912;-82
2023/10/17 21:41:01;;;;;;;;;;;;;;;;;;6304216;28;19916;-84
2023/10/17 21:44:02;;;;;;;;;;;;;;;;;;6308361;28;20336;-84
2023/10/17 21:47:02;;;;;;;;;;;;;;;;;;6339527;28;19912;-84
2023/10/17 21:50:02;;;;;;;;;;;;;;;;;;6310020;28;19919;-84
2023/10/17 21:53:02;;;;;;;;;;;;;;;;;;6333103;28;19926;-84
2023/10/17 21:56:03;;;;;;;;;;;;;;;;;;6305272;28;19979;-84
2023/10/17 21:59:03;;;;;;;;;;;;;;;;;;6338425;28;19978;-90
2023/10/17 22:02:05;;;;;;;;;;;;;;;;;;6335311;27;20038;-90
2023/10/17 22:05:06;;;;;;;;;;;;;;;;;;6327996;28;19998;-91
2023/10/17 22:08:06;;;;;;;;;;;;;;;;;;6339362;28;19958;-85
2023/10/17 22:11:06;;;;;;;;;;;;;;;;;;6326643;28;19929;-84
2023/10/17 22:14:06;;;;;;;;;;;;;;;;;;6306221;28;19912;-84
2023/10/17 22:17:06;;;;;;;;;;;;;;;;;;6324468;28;19912;-84
2023/10/17 22:20:08;;;;;;;;;;;;;;;;;;6304629;28;19912;-82
2023/10/17 22:23:09;;;;;;;;;;;;;;;;;;6306822;28;19915;-82
2023/10/17 22:26:09;;;;;;;;;;;;;;;;;;6330571;28;19927;-82
2023/10/17 22:29:09;;;;;;;;;;;;;;;;;;6314031;28;20728;-82
2023/10/17 22:32:09;;;;;;;;;;;;;;;;;;6318417;28;19916;-85